Time;durP1;ratioP1;P1;durP2;ratioP2;P2;SDS_P1;SDS_P2;PMS_P1;PMS_P2;Temp;Humidity;BMP_temperature;BMP_pressure;BME280_temperature;BME280_humidity;BME280_pressure;Samples;Min_cycle;Max_cycle;Signal;HPM_P1;HPM_P2
2022/09/24 00:01:16;;;;;;;30.30;23.10;;;;;;;8.87;77.58;99964.38;213226;1276;141300;-64
2022/09/24 00:06:20;;;;;;;32.20;23.30;;;;;;;8.87;77.98;99955.63;213312;1276;141446;-65
2022/09/24 00:11:25;;;;;;;37.50;25.00;;;;;;;8.83;78.39;99952.90;215270;1276;140254;-66
2022/09/24 00:16:32;;;;;;;32.60;20.70;;;;;;;8.86;78.26;99946.90;214610;1276;141035;-65
2022/09/24 00:21:36;;;;;;;32.70;23.00;;;;;;;8.74;77.93;99942.17;214628;1276;142266;-66
2022/09/24 00:26:51;;;;;;;28.20;22.70;;;;;;;8.72;78.69;99941.86;214776;1276;142441;-66
2022/09/24 00:31:56;;;;;;;31.50;23.20;;;;;;;8.86;78.89;99943.24;214485;1276;143264;-67
2022/09/24 00:36:58;;;;;;;31.50;23.50;;;;;;;8.97;78.93;99938.31;215585;1276;143196;-65
2022/09/24 00:42:01;;;;;;;33.30;23.30;;;;;;;8.96;78.57;99931.36;214512;1275;143335;-66
2022/09/24 00:47:04;;;;;;;31.60;22.40;;;;;;;8.84;78.29;99919.93;214250;1276;142296;-65
2022/09/24 00:52:08;;;;;;;33.90;22.00;;;;;;;8.87;78.79;99920.94;214901;1276;141447;-64
2022/09/24 00:57:12;;;;;;;33.00;24.50;;;;;;;8.98;79.02;99914.95;215035;1276;141922;-66
2022/09/24 01:02:14;;;;;;;28.10;21.90;;;;;;;9.05;78.77;99914.15;213361;1276;141513;-65
2022/09/24 01:07:18;;;;;;;31.50;23.50;;;;;;;9.03;78.55;99909.67;213896;1275;141209;-66
2022/09/24 01:12:42;;;;;;;30.70;21.40;;;;;;;8.97;78.37;99905.02;213567;1276;141240;-65
2022/09/24 01:17:55;;;;;;;31.70;20.60;;;;;;;8.88;78.63;99901.06;213135;1276;142078;-66
2022/09/24 01:23:24;;;;;;;25.00;19.60;;;;;;;8.83;78.50;99893.87;213606;1276;142184;-65
2022/09/24 01:28:55;;;;;;;25.70;18.60;;;;;;;8.73;79.00;99891.36;212930;1276;141051;-65
2022/09/24 01:34:04;;;;;;;22.80;15.90;;;;;;;8.74;78.94;99896.30;213803;1276;142182;-66
2022/09/24 01:39:09;;;;;;;21.20;15.30;;;;;;;8.75;78.84;99893.87;213643;1275;142259;-66
2022/09/24 01:44:12;;;;;;;21.70;14.40;;;;;;;8.83;78.99;99890.52;213559;1276;143494;-67
2022/09/24 01:49:15;;;;;;;19.00;13.80;;;;;;;8.86;78.98;99886.94;212886;1276;141456;-66
2022/09/24 01:54:50;;;;;;;17.40;11.80;;;;;;;8.79;78.49;99883.05;212977;1277;141280;-66
2022/09/24 01:59:59;;;;;;;21.90;13.00;;;;;;;8.73;78.56;99883.55;213970;1276;144761;-67
2022/09/24 02:05:33;;;;;;;19.90;13.10;;;;;;;8.73;78.60;99879.91;214080;1276;140387;-66
2022/09/24 02:11:00;;;;;;;12.30;8.20;;;;;;;8.74;78.34;99877.98;213727;1275;141185;-67
2022/09/24 02:16:06;;;;;;;16.40;11.90;;;;;;;8.73;78.32;99876.27;213226;1276;152269;-67
2022/09/24 02:21:16;;;;;;;15.80;11.50;;;;;;;8.71;78.19;99876.70;214298;1276;141797;-66
2022/09/24 02:26:20;;;;;;;22.30;13.00;;;;;;;8.76;78.55;99873.95;215516;1276;141317;-67
2022/09/24 02:31:49;;;;;;;16.90;11.60;;;;;;;8.80;78.74;99871.55;215984;1276;143779;-68
2022/09/24 02:36:58;;;;;;;19.70;12.20;;;;;;;8.88;78.75;99864.33;215711;1275;142251;-67
2022/09/24 02:42:04;;;;;;;15.30;11.00;;;;;;;8.98;78.84;99860.55;215949;1274;141634;-67
2022/09/24 02:47:07;;;;;;;14.20;11.60;;;;;;;9.08;78.82;99857.71;213595;1276;147290;-66
2022/09/24 02:52:10;;;;;;;14.20;10.90;;;;;;;9.13;78.73;99855.98;214928;1276;152998;-67
2022/09/24 02:57:13;;;;;;;18.50;10.80;;;;;;;9.15;78.58;99853.66;213279;1276;141972;-67
2022/09/24 03:02:16;;;;;;;13.10;10.00;;;;;;;9.05;78.30;99849.71;214944;1276;140871;-66
2022/09/24 03:07:20;;;;;;;12.90;10.90;;;;;;;9.01;78.23;99848.98;213203;1276;142075;-67
2022/09/24 03:12:24;;;;;;;15.60;9.90;;;;;;;9.03;78.77;99847.73;214005;1276;142593;-66
2022/09/24 03:17:27;;;;;;;14.50;11.30;;;;;;;9.04;78.51;99846.99;212996;1275;141612;-65
2022/09/24 03:22:30;;;;;;;13.80;10.70;;;;;;;8.95;78.39;99841.63;213281;1276;140353;-64
2022/09/24 03:27:33;;;;;;;18.30;10.20;;;;;;;8.83;78.63;99842.93;213840;1276;142611;-65
2022/09/24 03:32:35;;;;;;;15.00;10.30;;;;;;;8.65;78.37;99840.56;213550;1276;142693;-66
2022/09/24 03:37:41;;;;;;;10.90;9.50;;;;;;;8.55;78.66;99840.56;213717;1276;142972;-65
2022/09/24 03:42:51;;;;;;;13.50;8.50;;;;;;;8.59;79.05;99844.21;213490;1276;143871;-66
2022/09/24 03:47:54;;;;;;;15.80;10.80;;;;;;;8.54;78.83;99842.69;213241;1276;142143;-66
2022/09/24 03:52:57;;;;;;;12.90;9.70;;;;;;;8.53;79.23;99842.09;213924;1276;143226;-66
2022/09/24 03:58:04;;;;;;;14.30;10.40;;;;;;;8.57;79.11;99845.80;213935;1276;140159;-66
2022/09/24 04:03:08;;;;;;;14.70;11.20;;;;;;;8.62;79.30;99853.10;214442;1276;140684;-66
2022/09/24 04:08:12;;;;;;;14.90;10.90;;;;;;;8.70;79.73;99847.80;214251;1276;142005;-67
2022/09/24 04:13:16;;;;;;;19.10;10.70;;;;;;;8.71;79.37;99844.59;214546;1276;140293;-66
2022/09/24 04:18:20;;;;;;;17.00;12.40;;;;;;;8.67;79.13;99841.07;213818;1276;140657;-65
2022/09/24 04:23:23;;;;;;;15.70;11.90;;;;;;;8.74;79.45;99843.95;215476;1275;140778;-66
2022/09/24 04:28:27;;;;;;;15.50;11.90;;;;;;;8.73;79.08;99841.26;214443;1276;141436;-66
2022/09/24 04:33:29;;;;;;;15.50;11.10;;;;;;;8.75;79.27;99835.03;215738;1276;141940;-66
2022/09/24 04:38:31;;;;;;;11.30;9.80;;;;;;;8.83;79.73;99839.74;215972;1274;141155;-66
2022/09/24 04:43:35;;;;;;;20.10;12.00;;;;;;;8.87;79.46;99836.93;215703;1275;140960;-67
2022/09/24 04:48:39;;;;;;;15.10;11.50;;;;;;;8.87;79.31;99836.54;215783;1275;141456;-67
2022/09/24 04:53:41;;;;;;;12.80;10.80;;;;;;;8.93;79.50;99832.79;213403;1276;140861;-65
2022/09/24 04:58:43;;;;;;;14.50;11.20;;;;;;;9.03;79.70;99835.92;213983;1276;141545;-66
2022/09/24 05:03:46;;;;;;;16.90;12.90;;;;;;;9.10;80.06;99830.08;214073;1277;143129;-65
2022/09/24 05:08:50;;;;;;;19.40;12.60;;;;;;;9.16;79.92;99824.80;213241;1277;141015;-66
2022/09/24 05:13:52;;;;;;;14.80;12.40;;;;;;;9.17;79.60;99821.46;212730;1276;142993;-66
2022/09/24 05:18:56;;;;;;;22.70;11.90;;;;;;;9.12;79.59;99825.50;213976;1277;140489;-67
2022/09/24 05:23:59;;;;;;;16.90;12.40;;;;;;;9.12;79.76;99822.93;213301;1275;140950;-67
2022/09/24 05:29:05;;;;;;;15.10;12.90;;;;;;;9.15;80.26;99822.12;212959;1276;141451;-66
2022/09/24 05:34:08;;;;;;;14.80;11.10;;;;;;;9.22;80.22;99822.22;214033;1276;150983;-68
2022/09/24 05:39:11;;;;;;;16.50;13.30;;;;;;;9.26;80.20;99821.43;213713;1276;142331;-66
2022/09/24 05:44:14;;;;;;;14.30;12.00;;;;;;;9.25;80.08;99818.83;212848;1276;141414;-65
2022/09/24 05:49:26;;;;;;;13.20;11.60;;;;;;;9.33;80.10;99821.64;214310;1276;141329;-66
2022/09/24 05:54:29;;;;;;;13.00;10.50;;;;;;;9.34;79.82;99818.48;213287;1276;140321;-65
2022/09/24 05:59:31;;;;;;;13.50;12.00;;;;;;;9.35;79.62;99824.15;213929;1276;141935;-67
2022/09/24 06:04:33;;;;;;;14.20;11.80;;;;;;;9.51;80.24;99827.04;214821;1276;140963;-67
2022/09/24 06:09:37;;;;;;;13.10;9.60;;;;;;;9.64;79.61;99828.06;213028;1276;141066;-66
2022/09/24 06:14:42;;;;;;;12.80;10.20;;;;;;;9.65;79.28;99825.33;214373;1276;140984;-66
2022/09/24 06:19:46;;;;;;;15.90;10.60;;;;;;;9.70;79.28;99823.34;213809;1277;141519;-66
2022/09/24 06:24:50;;;;;;;12.50;10.30;;;;;;;9.80;79.29;99822.42;215302;1275;142020;-65
2022/09/24 06:29:53;;;;;;;15.30;11.40;;;;;;;9.95;79.18;99813.96;215637;1276;141437;-68
2022/09/24 06:35:00;;;;;;;13.00;9.60;;;;;;;10.14;79.14;99815.91;215989;1276;141113;-67
2022/09/24 06:40:06;;;;;;;15.10;10.80;;;;;;;10.35;78.94;99813.21;215738;1276;140612;-67
2022/09/24 06:45:10;;;;;;;15.10;10.40;;;;;;;10.57;78.80;99808.73;215843;1275;140886;-68
2022/09/24 06:50:13;;;;;;;19.80;11.90;;;;;;;10.74;78.19;99813.73;215764;1276;141780;-68
2022/09/24 06:55:17;;;;;;;19.20;11.10;;;;;;;10.99;78.28;99817.95;214614;1276;141041;-67
2022/09/24 07:00:20;;;;;;;16.20;12.30;;;;;;;11.27;78.19;99815.17;214882;1273;141201;-67
2022/09/24 07:05:23;;;;;;;18.50;12.50;;;;;;;11.52;77.88;99816.39;213786;1275;140807;-65
2022/09/24 07:10:26;;;;;;;18.10;10.60;;;;;;;11.71;76.73;99815.61;213176;1276;140991;-66
2022/09/24 07:15:33;;;;;;;10.60;8.30;;;;;;;11.90;76.37;99820.89;213719;1275;143160;-67
2022/09/24 07:20:37;;;;;;;14.30;10.90;;;;;;;12.01;75.76;99818.02;213456;1276;151592;-67
2022/09/24 07:25:40;;;;;;;12.00;9.20;;;;;;;12.15;75.70;99822.59;214615;1276;140552;-66
2022/09/24 07:30:42;;;;;;;12.70;8.30;;;;;;;12.39;75.42;99823.45;213834;1276;140553;-66
2022/09/24 07:35:44;;;;;;;13.20;9.70;;;;;;;12.58;74.77;99828.64;213877;1276;140827;-66
2022/09/24 07:40:49;;;;;;;12.00;8.80;;;;;;;12.63;74.25;99832.19;214018;1276;141673;-67
2022/09/24 07:45:51;;;;;;;11.60;9.00;;;;;;;12.70;73.74;99837.23;213765;1276;140854;-67
2022/09/24 07:50:54;;;;;;;11.80;9.30;;;;;;;12.81;73.68;99840.48;213553;1277;141692;-68
2022/09/24 07:56:00;;;;;;;11.30;9.30;;;;;;;13.12;74.17;99840.09;213531;1276;141395;-67
2022/09/24 08:01:03;;;;;;;25.20;10.60;;;;;;;13.39;73.32;99841.89;213289;1276;141689;-67
2022/09/24 08:06:07;;;;;;;9.30;8.00;;;;;;;13.53;72.75;99844.28;212879;1276;141536;-67
2022/09/24 08:11:12;;;;;;;15.20;9.50;;;;;;;13.61;72.62;99846.52;213645;1276;141187;-67
2022/09/24 08:16:19;;;;;;;11.60;8.70;;;;;;;13.72;72.28;99845.90;214866;1276;142256;-64
2022/09/24 08:21:23;;;;;;;11.90;9.50;;;;;;;13.78;71.72;99842.52;215067;1276;141054;-66
2022/09/24 08:26:26;;;;;;;12.00;8.50;;;;;;;13.75;70.71;99845.97;213896;1276;140387;-65
2022/09/24 08:31:30;;;;;;;15.10;8.30;;;;;;;13.72;70.42;99842.95;214881;1276;141055;-67
2022/09/24 08:36:35;;;;;;;12.30;9.20;;;;;;;13.84;70.54;99841.13;214826;1276;141209;-67
2022/09/24 08:41:48;;;;;;;9.10;7.90;;;;;;;14.11;69.98;99842.86;215826;1276;140735;-67
2022/09/24 08:47:24;;;;;;;10.50;7.40;;;;;;;14.23;69.01;99837.93;215409;1276;140643;-68
2022/09/24 08:52:48;;;;;;;10.40;8.30;;;;;;;14.35;68.77;99828.76;215111;1276;142254;-67
2022/09/24 08:58:37;;;;;;;6.80;6.10;;;;;;;14.77;69.17;99825.52;213736;1276;159556;-65
2022/09/24 09:04:11;;;;;;;8.20;6.20;;;;;;;15.20;67.39;99830.34;214350;1276;141609;-66
2022/09/24 09:09:20;;;;;;;7.40;6.30;;;;;;;15.47;66.94;99835.86;215342;1276;236061;-67
2022/09/24 09:14:42;;;;;;;8.10;6.80;;;;;;;15.61;66.23;99839.20;214014;1276;140546;-67
2022/09/24 09:19:52;;;;;;;10.40;7.30;;;;;;;15.97;66.13;99841.68;213636;1276;141455;-67
2022/09/24 09:25:02;;;;;;;12.20;7.50;;;;;;;16.14;65.06;99843.64;214046;1276;141949;-66
2022/09/24 09:30:13;;;;;;;9.10;7.00;;;;;;;16.21;64.42;99838.63;213871;1276;139945;-66
2022/09/24 09:35:42;;;;;;;10.00;8.70;;;;;;;16.12;63.47;99841.64;213173;1276;140716;-67
2022/09/24 09:41:22;;;;;;;14.10;7.20;;;;;;;16.01;63.58;99839.32;213073;1276;140617;-66
2022/09/24 09:46:33;;;;;;;9.90;7.50;;;;;;;16.14;63.51;99835.63;212453;1279;141530;-66
2022/09/24 09:51:41;;;;;;;11.30;6.80;;;;;;;16.20;62.97;99831.48;214564;1276;139749;-66
2022/09/24 09:56:47;;;;;;;11.30;8.20;;;;;;;16.23;62.76;99829.16;213852;1276;604965;-66
2022/09/24 10:01:55;;;;;;;9.50;8.10;;;;;;;16.34;62.98;99819.69;214224;1276;140580;-65
2022/09/24 10:07:10;;;;;;;13.00;6.70;;;;;;;16.39;62.48;99815.38;214173;1276;139724;-66
2022/09/24 10:12:21;;;;;;;6.40;4.60;;;;;;;16.53;62.24;99818.20;214240;1276;140738;-65
2022/09/24 10:17:34;;;;;;;7.30;6.10;;;;;;;16.92;62.01;99818.69;213987;1276;139984;-66
2022/09/24 10:22:40;;;;;;;6.90;6.20;;;;;;;17.35;61.43;99816.48;214239;1276;140409;-66
2022/09/24 10:27:46;;;;;;;6.30;5.60;;;;;;;17.48;60.37;99808.89;215082;1276;139360;-67
2022/09/24 10:32:56;;;;;;;6.50;5.30;;;;;;;17.54;59.81;99804.50;215148;1276;140286;-67
2022/09/24 10:38:00;;;;;;;11.40;5.70;;;;;;;17.74;59.49;99796.85;215906;1276;140012;-69
2022/09/24 10:43:05;;;;;;;5.40;4.90;;;;;;;18.04;58.40;99795.60;215627;1276;141153;-68
2022/09/24 10:48:17;;;;;;;6.30;5.40;;;;;;;17.99;57.36;99794.63;215479;1276;140011;-69
2022/09/24 10:53:28;;;;;;;8.50;5.20;;;;;;;17.95;57.39;99796.06;215514;1276;234337;-66
2022/09/24 10:58:54;;;;;;;5.10;4.70;;;;;;;17.90;56.96;99794.77;214290;1276;140943;-67
2022/09/24 11:04:11;;;;;;;5.20;4.60;;;;;;;17.86;56.80;99787.55;215095;1276;140915;-66
2022/09/24 11:09:48;;;;;;;2.80;2.60;;;;;;;17.96;57.16;99787.64;214815;1276;140916;-67
2022/09/24 11:15:10;;;;;;;4.80;3.80;;;;;;;18.01;56.36;99786.63;214823;1276;140955;-68
2022/09/24 11:20:29;;;;;;;4.10;3.50;;;;;;;17.76;55.60;99785.61;214468;1276;141165;-64
2022/09/24 11:25:43;;;;;;;5.90;4.20;;;;;;;17.63;55.20;99782.63;213716;1276;141944;-65
2022/09/24 11:31:12;;;;;;;6.50;4.70;;;;;;;17.49;54.97;99775.20;212890;1277;140737;-66
2022/09/24 11:36:23;;;;;;;4.70;4.10;;;;;;;17.45;55.12;99774.22;213632;1276;140459;-67
2022/09/24 11:41:39;;;;;;;7.20;4.80;;;;;;;17.42;55.05;99773.54;213112;1276;140831;-66
2022/09/24 11:47:07;;;;;;;4.50;4.10;;;;;;;17.38;54.89;99773.40;214736;1276;141466;-66
2022/09/24 11:52:22;;;;;;;6.70;5.20;;;;;;;17.28;54.42;99774.63;213269;1276;140527;-65
2022/09/24 11:57:32;;;;;;;8.50;4.40;;;;;;;17.26;54.69;99774.00;213513;1276;139698;-66
2022/09/24 12:03:12;;;;;;;6.30;5.80;;;;;;;17.27;54.73;99772.27;213250;1277;140362;-66
2022/09/24 12:08:23;;;;;;;6.20;4.50;;;;;;;17.17;54.52;99768.48;214882;1276;140845;-66
2022/09/24 12:13:33;;;;;;;6.70;4.50;;;;;;;17.00;54.37;99767.02;214122;1276;140436;-66
2022/09/24 12:18:58;;;;;;;11.70;5.50;;;;;;;16.82;54.40;99762.23;213525;1276;141148;-66
2022/09/24 12:24:09;;;;;;;7.50;4.70;;;;;;;16.72;54.86;99757.06;214955;1276;141084;-67
2022/09/24 12:35:21;;;;;;;5.10;4.60;;;;;;;16.67;55.09;99764.88;215887;1276;140819;-68
2022/09/24 12:41:05;;;;;;;7.90;5.60;;;;;;;16.74;55.03;99755.11;214009;1276;140871;-66
2022/09/24 12:46:18;;;;;;;4.90;3.80;;;;;;;16.75;55.11;99750.86;215936;1276;140693;-67
2022/09/24 12:51:36;;;;;;;8.80;5.30;;;;;;;16.85;55.03;99748.16;215742;1277;140180;-67
2022/09/24 12:56:39;;;;;;;4.80;4.40;;;;;;;16.82;54.70;99745.54;213201;1277;141192;-66
2022/09/24 13:01:43;;;;;;;6.20;4.30;;;;;;;16.71;54.59;99746.83;215092;1277;141114;-66
2022/09/24 13:06:48;;;;;;;5.20;3.70;;;;;;;16.69;54.68;99740.76;214392;1276;140174;-65
2022/09/24 13:12:16;;;;;;;7.50;4.00;;;;;;;16.82;54.88;99740.05;213797;1277;141165;-66
2022/09/24 13:17:23;;;;;;;3.70;3.20;;;;;;;16.88;54.82;99740.29;214904;1277;221816;-67
2022/09/24 13:22:33;;;;;;;4.00;3.20;;;;;;;16.81;54.63;99734.02;214182;1276;139876;-66
2022/09/24 13:27:40;;;;;;;7.40;5.50;;;;;;;16.61;54.59;99730.30;213165;1276;142514;-65
2022/09/24 13:33:16;;;;;;;8.00;4.60;;;;;;;16.44;54.81;99731.11;214576;1277;140961;-66
2022/09/24 13:38:33;;;;;;;8.60;4.50;;;;;;;16.34;54.91;99725.42;213166;1276;140850;-66
2022/09/24 13:44:05;;;;;;;7.60;4.30;;;;;;;16.28;55.36;99725.48;214305;1276;140293;-66
2022/09/24 13:49:15;;;;;;;6.30;4.30;;;;;;;16.23;55.62;99723.78;213706;1276;141167;-65
2022/09/24 13:54:52;;;;;;;7.10;4.60;;;;;;;16.22;55.92;99721.04;213764;1277;140959;-67
2022/09/24 14:00:15;;;;;;;3.70;3.20;;;;;;;16.19;56.04;99712.66;213803;1279;140873;-66
2022/09/24 14:05:19;;;;;;;13.90;5.40;;;;;;;16.16;56.02;99708.91;213413;1280;139704;-66
2022/09/24 14:10:23;;;;;;;8.10;4.70;;;;;;;16.19;55.98;99705.56;212849;1279;140802;-66
2022/09/24 14:15:28;;;;;;;22.20;8.50;;;;;;;16.18;55.64;99699.64;212998;1279;139891;-66
2022/09/24 14:20:34;;;;;;;8.60;3.90;;;;;;;16.08;55.58;99699.34;213338;1279;141375;-65
2022/09/24 14:25:38;;;;;;;24.50;6.00;;;;;;;15.93;55.29;99695.92;214719;1279;141354;-66
2022/09/24 14:30:54;;;;;;;16.60;5.20;;;;;;;15.84;55.69;99691.15;214256;1275;140940;-65
2022/09/24 14:36:02;;;;;;;5.20;2.70;;;;;;;15.89;55.92;99692.55;214678;1276;140857;-67
2022/09/24 14:41:21;;;;;;;4.00;3.70;;;;;;;15.91;56.09;99694.30;215855;1276;141511;-67
2022/09/24 14:46:26;;;;;;;3.80;3.30;;;;;;;15.97;56.28;99688.92;215751;1276;160916;-67
2022/09/24 14:51:31;;;;;;;5.60;4.30;;;;;;;15.97;56.44;99690.64;215873;1275;141481;-66
2022/09/24 14:56:35;;;;;;;7.40;4.30;;;;;;;15.92;56.37;99695.20;215840;1276;141383;-66
2022/09/24 15:01:37;;;;;;;4.30;3.60;;;;;;;15.97;56.99;99693.54;214641;1276;141169;-66
2022/09/24 15:06:47;;;;;;;8.40;5.60;;;;;;;16.05;57.03;99692.84;213555;1275;141230;-66
2022/09/24 15:11:50;;;;;;;5.90;3.60;;;;;;;16.04;57.12;99688.80;213148;1276;142189;-65
2022/09/24 15:16:54;;;;;;;5.80;4.20;;;;;;;16.04;57.33;99689.51;214152;1276;142648;-66
2022/09/24 15:21:57;;;;;;;6.70;4.90;;;;;;;16.01;57.25;99689.02;213452;1276;145170;-66
2022/09/24 15:27:05;;;;;;;11.80;5.60;;;;;;;15.91;57.41;99686.35;213445;1276;141640;-67
2022/09/24 15:32:17;;;;;;;6.60;5.70;;;;;;;15.88;57.45;99683.66;214487;1276;141769;-68
2022/09/24 15:37:24;;;;;;;12.50;6.50;;;;;;;15.88;57.57;99685.67;214261;1276;140411;-65
2022/09/24 15:42:27;;;;;;;7.40;5.70;;;;;;;15.83;57.52;99683.89;213554;1276;141081;-70
2022/09/24 15:47:29;;;;;;;11.90;7.10;;;;;;;15.74;57.87;99684.43;214070;1276;140198;-66
2022/09/24 15:52:43;;;;;;;6.40;5.80;;;;;;;15.64;58.23;99689.38;212886;1276;141786;-68
2022/09/24 15:57:46;;;;;;;6.30;5.70;;;;;;;15.43;58.48;99691.38;213259;1276;140510;-68
2022/09/24 16:02:55;;;;;;;7.30;6.00;;;;;;;15.31;59.53;99691.48;213014;1276;140093;-67
2022/09/24 16:08:01;;;;;;;15.60;8.10;;;;;;;15.16;60.45;99689.90;212646;1276;139767;-66
2022/09/24 16:13:05;;;;;;;16.40;5.70;;;;;;;15.01;61.10;99688.56;214192;1275;140411;-69
2022/09/24 16:18:16;;;;;;;8.00;6.80;;;;;;;14.80;61.59;99683.79;214787;1276;141715;-68
2022/09/24 16:23:19;;;;;;;9.80;6.10;;;;;;;14.62;62.11;99689.14;212597;1276;139851;-68
2022/09/24 16:28:22;;;;;;;9.20;7.00;;;;;;;14.47;62.58;99694.48;215294;1276;141258;-68
2022/09/24 16:33:27;;;;;;;7.80;6.80;;;;;;;14.31;62.90;99695.78;215691;1276;140376;-67
2022/09/24 16:38:36;;;;;;;8.60;6.60;;;;;;;14.06;63.55;99692.56;213071;1276;139845;-66
2022/09/24 16:43:39;;;;;;;11.40;6.50;;;;;;;13.86;64.07;99690.77;212808;1277;140528;-66
2022/09/24 16:48:43;;;;;;;6.60;5.70;;;;;;;13.62;64.30;99693.54;215717;1276;140422;-67
2022/09/24 16:53:46;;;;;;;5.20;4.70;;;;;;;13.34;65.01;99700.95;214947;1276;140055;-67
2022/09/24 16:58:51;;;;;;;7.70;6.00;;;;;;;13.14;65.47;99698.64;215744;1276;140522;-68
2022/09/24 17:03:55;;;;;;;9.70;7.10;;;;;;;12.97;65.92;99697.27;215637;1276;141527;-70
2022/09/24 17:14:18;;;;;;;9.40;7.60;;;;;;;12.76;66.47;99693.30;214269;1276;140882;-67
2022/09/24 17:19:20;;;;;;;12.10;9.60;;;;;;;12.72;66.76;99693.45;214121;1276;140612;-69
2022/09/24 17:24:23;;;;;;;9.80;8.70;;;;;;;12.52;66.59;99697.70;213575;1276;140195;-66
2022/09/24 17:29:25;;;;;;;12.80;9.70;;;;;;;12.33;66.96;99697.14;214033;1276;140311;-65
2022/09/24 17:34:33;;;;;;;13.00;8.50;;;;;;;12.26;67.55;99696.45;212848;1276;141316;-66
2022/09/24 17:39:38;;;;;;;13.30;10.70;;;;;;;12.15;67.42;99696.95;213168;1276;140856;-65
2022/09/24 17:44:44;;;;;;;12.20;10.10;;;;;;;12.03;67.35;99690.99;213431;1276;224103;-65
2022/09/24 17:49:48;;;;;;;28.00;12.00;;;;;;;11.92;67.07;99690.50;213734;1275;141141;-66
2022/09/24 17:54:52;;;;;;;18.70;13.30;;;;;;;11.80;67.14;99695.93;213606;1276;140713;-67
2022/09/24 17:59:55;;;;;;;24.30;13.50;;;;;;;11.68;67.25;99702.28;213791;1276;140645;-64
2022/09/24 18:04:59;;;;;;;16.50;12.90;;;;;;;11.51;67.37;99709.59;214002;1275;141171;-64
2022/09/24 18:10:02;;;;;;;12.30;10.40;;;;;;;11.32;67.49;99709.68;213341;1276;141413;-67
2022/09/24 18:15:06;;;;;;;14.50;11.00;;;;;;;11.03;67.36;99707.60;214254;1276;140360;-67
2022/09/24 18:20:12;;;;;;;24.60;11.60;;;;;;;10.78;67.70;99711.98;214191;1276;141050;-66
2022/09/24 18:25:17;;;;;;;14.00;9.10;;;;;;;10.60;68.01;99709.31;214385;1276;141689;-68
2022/09/24 18:30:21;;;;;;;12.90;11.00;;;;;;;10.45;68.16;99705.38;214608;1276;141160;-67
2022/09/24 18:35:23;;;;;;;14.00;11.00;;;;;;;10.32;68.42;99710.97;215006;1276;140877;-69
2022/09/24 18:40:26;;;;;;;17.20;13.90;;;;;;;10.25;68.73;99712.63;213572;1276;141357;-67
2022/09/24 18:45:29;;;;;;;25.70;15.50;;;;;;;10.18;68.97;99707.39;215758;1276;143793;-69
2022/09/24 18:50:33;;;;;;;25.50;18.50;;;;;;;10.08;69.03;99710.20;215816;1276;142889;-69
2022/09/24 18:55:44;;;;;;;26.30;18.00;;;;;;;9.98;69.09;99710.97;215837;1276;141237;-68
2022/09/24 19:00:50;;;;;;;30.30;18.80;;;;;;;9.89;69.17;99709.52;215280;1276;142633;-67
2022/09/24 19:05:54;;;;;;;20.60;15.40;;;;;;;9.80;69.46;99712.62;214818;1276;140396;-66
2022/09/24 19:11:09;;;;;;;17.30;15.10;;;;;;;9.72;69.59;99713.94;214158;1276;164649;-64
2022/09/24 19:16:16;;;;;;;22.90;17.70;;;;;;;9.59;69.87;99711.06;214004;1276;141172;-65
2022/09/24 19:21:25;;;;;;;17.50;14.60;;;;;;;9.45;70.05;99703.58;213313;1276;141435;-64
2022/09/24 19:26:30;;;;;;;27.90;16.70;;;;;;;9.33;70.20;99704.06;212903;1276;141956;-66
2022/09/24 19:31:37;;;;;;;23.70;16.60;;;;;;;9.23;70.73;99707.45;213863;1276;141097;-65
2022/09/24 19:36:42;;;;;;;24.60;20.90;;;;;;;9.14;71.12;99710.81;213882;1276;152244;-66
2022/09/24 19:41:51;;;;;;;21.30;18.30;;;;;;;9.10;71.66;99717.20;213937;1276;141829;-66
2022/09/24 19:46:54;;;;;;;31.10;16.30;;;;;;;9.05;71.89;99719.02;213415;1276;141307;-65
2022/09/24 19:51:56;;;;;;;18.20;14.60;;;;;;;9.04;72.38;99723.41;213303;1276;142600;-64
2022/09/24 19:56:58;;;;;;;22.30;15.30;;;;;;;9.02;72.63;99724.04;213309;1276;142184;-62
2022/09/24 20:02:01;;;;;;;19.30;15.30;;;;;;;8.97;72.54;99727.63;213645;1276;141659;-65
2022/09/24 20:07:04;;;;;;;16.80;13.00;;;;;;;8.91;72.84;99727.83;213725;1276;142047;-67
2022/09/24 20:12:16;;;;;;;21.50;16.00;;;;;;;8.88;72.84;99727.58;213407;1276;142693;-65
2022/09/24 20:17:18;;;;;;;19.10;15.40;;;;;;;8.87;73.12;99729.80;212912;1276;142069;-66
2022/09/24 20:22:21;;;;;;;21.20;16.90;;;;;;;8.80;73.16;99728.30;214802;1274;142332;-67
2022/09/24 20:32:44;;;;;;;28.20;19.40;;;;;;;8.55;73.37;99724.42;213428;1276;141110;-66
2022/09/24 20:37:50;;;;;;;31.30;20.30;;;;;;;8.46;73.63;99731.30;213589;1276;141766;-65
2022/09/24 20:42:52;;;;;;;28.20;19.50;;;;;;;8.38;73.54;99726.59;214335;1276;142377;-65
2022/09/24 20:47:55;;;;;;;27.10;23.10;;;;;;;8.36;73.57;99730.62;215749;1276;140907;-66
2022/09/24 20:52:57;;;;;;;28.90;20.10;;;;;;;8.33;73.54;99729.77;215743;1276;141840;-66
2022/09/24 20:58:00;;;;;;;29.60;20.80;;;;;;;8.23;73.91;99730.09;215508;1277;141783;-67
2022/09/24 21:03:03;;;;;;;34.00;22.30;;;;;;;8.12;73.85;99731.83;215793;1277;140478;-68
2022/09/24 21:08:25;;;;;;;28.40;18.70;;;;;;;8.01;73.29;99732.23;213594;1276;141782;-66
2022/09/24 21:13:28;;;;;;;24.30;19.60;;;;;;;7.90;73.61;99728.19;213828;1276;141905;-65
2022/09/24 21:18:36;;;;;;;26.00;19.20;;;;;;;7.80;73.58;99728.17;215475;1276;140622;-64
2022/09/24 21:23:44;;;;;;;28.60;19.10;;;;;;;7.79;74.27;99727.45;214022;1276;143043;-65
2022/09/24 21:28:49;;;;;;;30.50;20.80;;;;;;;7.78;74.21;99724.55;213979;1276;143329;-66
2022/09/24 21:33:52;;;;;;;28.60;19.60;;;;;;;7.75;74.38;99721.64;213975;1278;142383;-65
2022/09/24 21:39:01;;;;;;;24.90;18.90;;;;;;;7.74;74.54;99718.84;212984;1276;141264;-66
2022/09/24 21:44:08;;;;;;;33.80;24.00;;;;;;;7.70;74.08;99714.46;212807;1276;140294;-66
2022/09/24 21:49:11;;;;;;;;;;;;;;;7.60;74.37;99713.89;213437;1276;140754;-65
2022/09/24 21:54:15;;;;;;;27.90;20.30;;;;;;;7.40;73.98;99709.38;213456;1276;552426;-66
2022/09/24 22:04:38;;;;;;;33.30;25.00;;;;;;;7.11;74.57;99701.00;213009;1276;140384;-65
2022/09/24 22:09:43;;;;;;;36.90;25.50;;;;;;;7.05;74.94;99695.96;212992;1276;141026;-65
2022/09/24 22:14:45;;;;;;;31.80;25.00;;;;;;;7.05;74.99;99696.01;213918;1276;141645;-65
2022/09/24 22:19:48;;;;;;;36.90;23.60;;;;;;;6.94;74.82;99698.77;214064;1276;140412;-64
2022/09/24 22:24:50;;;;;;;34.00;25.00;;;;;;;6.86;75.28;99699.74;213031;1276;220360;-63
2022/09/24 22:29:53;;;;;;;38.40;24.90;;;;;;;6.80;75.12;99698.42;213792;1276;230692;-63
2022/09/24 22:40:16;;;;;;;44.30;28.50;;;;;;;6.68;74.72;99697.23;214472;1276;141298;-66
2022/09/24 22:45:18;;;;;;;41.00;30.60;;;;;;;6.64;75.24;99695.04;213075;1276;140995;-64
2022/09/24 22:50:21;;;;;;;33.40;24.00;;;;;;;6.60;74.96;99692.85;215842;1276;140079;-64
2022/09/24 22:55:24;;;;;;;28.10;24.20;;;;;;;6.53;75.11;99686.97;215755;1276;141480;-64
2022/09/24 23:00:27;;;;;;;36.30;28.90;;;;;;;6.42;74.99;99689.65;215520;1276;140632;-63
2022/09/24 23:05:31;;;;;;;38.00;30.20;;;;;;;6.35;75.18;99684.52;215431;1276;140822;-63
2022/09/24 23:10:33;;;;;;;32.50;24.60;;;;;;;6.31;75.38;99682.16;213145;1276;141580;-63
2022/09/24 23:15:35;;;;;;;39.80;25.20;;;;;;;6.27;75.33;99683.75;214296;1276;142047;-63
2022/09/24 23:20:37;;;;;;;46.10;28.30;;;;;;;6.23;75.90;99685.67;214310;1276;141455;-67
2022/09/24 23:25:39;;;;;;;39.50;26.20;;;;;;;6.16;75.83;99683.90;213093;1276;142057;-67
2022/09/24 23:30:42;;;;;;;34.20;23.10;;;;;;;6.06;76.06;99685.12;214073;1276;141516;-64
2022/09/24 23:35:52;;;;;;;46.20;27.40;;;;;;;5.97;76.05;99684.59;213645;1276;229951;-65
2022/09/24 23:40:55;;;;;;;41.10;28.60;;;;;;;5.94;76.37;99684.23;212883;1276;142008;-63
2022/09/24 23:45:58;;;;;;;37.80;27.30;;;;;;;5.88;76.19;99687.52;213657;1276;142226;-63
2022/09/24 23:51:00;;;;;;;40.30;31.70;;;;;;;5.86;76.18;99682.36;212979;1276;162243;-64